createdAt,value
2023-05-19T00:00:30.498Z,34.85
2023-05-19T00:01:30.241Z,35.63
2023-05-19T00:02:30.362Z,32.79
2023-05-19T00:03:30.441Z,31.49
2023-05-19T00:04:30.431Z,30.99
2023-05-19T00:05:30.549Z,32.62
2023-05-19T00:06:30.580Z,33.67
2023-05-19T00:07:30.657Z,36.62
2023-05-19T00:08:30.671Z,33.20
2023-05-19T00:09:30.759Z,33.94
2023-05-19T00:10:30.920Z,31.55
2023-05-19T00:11:30.884Z,26.29
2023-05-19T00:12:30.932Z,27.95
2023-05-19T00:13:30.921Z,30.77
2023-05-19T00:14:30.999Z,27.89
2023-05-19T00:15:31.121Z,33.14
2023-05-19T00:16:31.268Z,26.33
2023-05-19T00:17:31.210Z,29.91
2023-05-19T00:18:31.235Z,33.66
2023-05-19T00:19:31.296Z,32.18
2023-05-19T00:20:31.589Z,28.74
2023-05-19T00:21:31.421Z,30.06
2023-05-19T00:22:31.489Z,29.13
2023-05-19T00:23:31.523Z,31.55
2023-05-19T00:24:31.583Z,29.44
2023-05-19T00:25:31.682Z,28.16
2023-05-19T00:26:31.678Z,28.48
2023-05-19T00:27:31.762Z,28.58
2023-05-19T00:28:31.823Z,26.92
2023-05-19T00:29:31.904Z,26.55
2023-05-19T00:30:32.282Z,26.70
2023-05-19T00:31:32.023Z,27.69
2023-05-19T00:32:32.062Z,33.03
2023-05-19T00:33:32.102Z,30.47
2023-05-19T00:34:32.211Z,29.42
2023-05-19T00:35:32.609Z,31.83
2023-05-19T00:36:32.305Z,31.48
2023-05-19T00:37:32.383Z,32.55
2023-05-19T00:38:32.444Z,29.45
2023-05-19T00:39:32.460Z,36.12
2023-05-19T00:40:32.800Z,34.23
2023-05-19T00:41:32.635Z,32.47
2023-05-19T00:42:32.694Z,32.17
2023-05-19T00:43:32.746Z,37.29
2023-05-19T00:44:32.798Z,31.91
2023-05-19T00:45:32.854Z,34.19
2023-05-19T00:46:32.934Z,35.05
2023-05-19T00:47:33.088Z,36.47
2023-05-19T00:48:33.041Z,34.50
2023-05-19T00:49:33.124Z,39.33
2023-05-19T00:50:33.395Z,35.15
2023-05-19T00:51:33.208Z,34.80
2023-05-19T00:52:33.287Z,34.39
2023-05-19T00:53:33.326Z,31.89
2023-05-19T00:54:33.379Z,36.64
2023-05-19T00:55:33.437Z,35.49
2023-05-19T00:56:33.471Z,31.56
2023-05-19T00:57:33.544Z,30.94
2023-05-19T00:58:33.585Z,32.34
2023-05-19T00:59:33.661Z,31.71
2023-05-19T01:00:34.000Z,30.06
2023-05-19T01:01:33.849Z,25.02
2023-05-19T01:02:33.947Z,27.50
2023-05-19T01:03:33.956Z,25.95
2023-05-19T01:04:33.962Z,30.78
2023-05-19T01:05:34.060Z,31.01
2023-05-19T01:06:34.124Z,30.22
2023-05-19T01:07:34.200Z,30.28
2023-05-19T01:08:34.236Z,30.32
2023-05-19T01:09:34.295Z,25.67
2023-05-19T01:10:34.387Z,27.28
2023-05-19T01:11:34.382Z,27.43
2023-05-19T01:12:34.426Z,26.50
2023-05-19T01:13:34.485Z,30.08
2023-05-19T01:14:34.545Z,29.09
2023-05-19T01:15:34.563Z,28.46
2023-05-19T01:16:34.666Z,31.25
2023-05-19T01:17:34.734Z,28.64
2023-05-19T01:18:34.730Z,28.66
2023-05-19T01:19:34.813Z,29.69
2023-05-19T01:20:35.509Z,31.31
2023-05-19T01:21:34.884Z,26.56
2023-05-19T01:22:34.927Z,29.75
2023-05-19T01:23:34.941Z,31.93
2023-05-19T01:24:34.946Z,33.90
2023-05-19T01:25:35.008Z,34.88
2023-05-19T01:26:35.069Z,32.24
2023-05-19T01:27:35.106Z,30.70
2023-05-19T01:28:35.137Z,28.22
2023-05-19T01:29:35.197Z,26.82
2023-05-19T01:30:35.449Z,33.93
2023-05-19T01:31:35.328Z,34.55
2023-05-19T01:32:35.340Z,39.19
2023-05-19T01:33:35.400Z,39.65
2023-05-19T01:34:35.435Z,39.70
2023-05-19T01:35:35.498Z,35.00
2023-05-19T01:36:35.518Z,24.89
2023-05-19T01:37:35.585Z,28.45
2023-05-19T01:38:35.658Z,26.00
2023-05-19T01:39:35.725Z,27.30
2023-05-19T01:40:35.768Z,25.05
2023-05-19T01:41:35.800Z,27.90
2023-05-19T01:42:35.859Z,25.00
2023-05-19T01:43:35.900Z,28.40
2023-05-19T01:44:35.992Z,27.47
2023-05-19T01:45:36.047Z,25.00
2023-05-19T01:46:36.247Z,27.10
2023-05-19T01:47:36.221Z,28.36
2023-05-19T01:48:36.180Z,25.31
2023-05-19T01:49:36.245Z,27.25
2023-05-19T01:50:36.379Z,28.84
2023-05-19T01:51:36.368Z,26.99
2023-05-19T01:52:36.436Z,29.71
2023-05-19T01:53:36.455Z,31.02
2023-05-19T01:54:36.537Z,28.65
2023-05-19T01:55:36.590Z,29.61
2023-05-19T01:56:36.635Z,28.98
2023-05-19T01:57:36.655Z,28.81
2023-05-19T01:58:36.741Z,28.29
2023-05-19T01:59:36.781Z,28.84
2023-05-19T02:00:36.836Z,28.14
2023-05-19T02:01:36.953Z,30.94
2023-05-19T02:02:36.923Z,29.68
2023-05-19T02:03:36.983Z,29.90
2023-05-19T02:04:37.063Z,28.52
2023-05-19T02:05:37.094Z,26.76
2023-05-19T02:06:37.116Z,29.26
2023-05-19T02:07:37.190Z,28.44
2023-05-19T02:08:37.558Z,30.86
2023-05-19T02:09:37.263Z,27.72
2023-05-19T02:10:37.336Z,29.16
2023-05-19T02:11:37.311Z,32.75
2023-05-19T02:12:37.374Z,30.92
2023-05-19T02:13:37.440Z,34.36
2023-05-19T02:14:37.444Z,32.94
2023-05-19T02:15:37.558Z,32.70
2023-05-19T02:16:37.561Z,32.91
2023-05-19T02:17:37.681Z,32.59
2023-05-19T02:18:37.686Z,30.15
2023-05-19T02:19:37.679Z,31.41
2023-05-19T02:20:37.741Z,33.56
2023-05-19T02:21:37.760Z,31.64
2023-05-19T02:22:37.799Z,32.39
2023-05-19T02:23:37.871Z,31.58
2023-05-19T02:24:37.884Z,34.66
2023-05-19T02:25:37.988Z,33.62
2023-05-19T02:26:37.998Z,32.36
2023-05-19T02:27:38.049Z,33.03
2023-05-19T02:28:38.112Z,35.58
2023-05-19T02:29:38.118Z,36.88
2023-05-19T02:30:38.174Z,34.90
2023-05-19T02:31:38.290Z,34.36
2023-05-19T02:32:38.363Z,35.68
2023-05-19T02:33:38.292Z,36.37
2023-05-19T02:34:38.338Z,34.88
2023-05-19T02:35:38.401Z,41.38
2023-05-19T02:36:38.449Z,37.61
2023-05-19T02:37:38.473Z,38.59
2023-05-19T02:38:38.526Z,40.55
2023-05-19T02:39:38.566Z,38.16
2023-05-19T02:40:38.656Z,38.84
2023-05-19T02:41:38.663Z,41.08
2023-05-19T02:42:38.726Z,40.49
2023-05-19T02:43:38.737Z,41.40
2023-05-19T02:44:38.830Z,39.84
2023-05-19T02:45:38.857Z,39.29
2023-05-19T02:46:38.974Z,40.77
2023-05-19T02:47:38.961Z,41.81
2023-05-19T02:48:38.976Z,38.68
2023-05-19T02:49:39.019Z,41.93
2023-05-19T02:50:39.125Z,41.90
2023-05-19T02:51:39.236Z,44.38
2023-05-19T02:52:39.224Z,46.29
2023-05-19T02:53:39.237Z,43.86
2023-05-19T02:54:39.268Z,47.60
2023-05-19T02:55:39.322Z,45.39
2023-05-19T02:56:39.340Z,44.74
2023-05-19T02:57:39.383Z,44.65
2023-05-19T02:58:39.459Z,47.63
2023-05-19T02:59:39.497Z,45.09
2023-05-19T03:00:39.555Z,45.61
2023-05-19T03:01:39.617Z,44.43
2023-05-19T03:02:39.802Z,46.53
2023-05-19T03:03:39.783Z,48.51
2023-05-19T03:04:39.726Z,44.17
2023-05-19T03:05:39.764Z,42.44
2023-05-19T03:06:39.798Z,49.17
2023-05-19T03:07:39.919Z,51.13
2023-05-19T03:08:42.279Z,50.44
2023-05-19T03:09:40.121Z,49.89
2023-05-19T03:10:40.157Z,52.88
2023-05-19T03:11:40.208Z,50.99
2023-05-19T03:12:40.252Z,48.75
2023-05-19T03:13:40.305Z,46.49
2023-05-19T03:14:40.360Z,49.54
2023-05-19T03:15:40.424Z,52.18
2023-05-19T03:16:40.512Z,52.03
2023-05-19T03:17:40.522Z,50.36
2023-05-19T03:18:40.581Z,49.64
2023-05-19T03:19:40.573Z,52.15
2023-05-19T03:20:41.680Z,52.01
2023-05-19T03:21:40.679Z,49.61
2023-05-19T03:22:40.715Z,51.63
2023-05-19T03:23:40.746Z,50.55
2023-05-19T03:24:40.801Z,48.70
2023-05-19T03:25:40.844Z,52.64
2023-05-19T03:26:40.912Z,48.40
2023-05-19T03:27:40.993Z,51.42
2023-05-19T03:28:41.008Z,53.39
2023-05-19T03:29:41.034Z,51.70
2023-05-19T03:30:41.121Z,47.76
2023-05-19T03:31:41.148Z,48.45
2023-05-19T03:32:41.252Z,49.01
2023-05-19T03:33:41.260Z,54.21
2023-05-19T03:34:41.275Z,53.12
2023-05-19T03:35:41.386Z,53.54
2023-05-19T03:36:41.407Z,52.48
2023-05-19T03:37:41.526Z,56.63
2023-05-19T03:38:41.511Z,56.94
2023-05-19T03:39:41.514Z,52.97
2023-05-19T03:40:41.591Z,51.91
2023-05-19T03:41:41.639Z,56.31
2023-05-19T03:42:41.691Z,52.03
2023-05-19T03:43:41.746Z,51.03
2023-05-19T03:44:41.760Z,55.17
2023-05-19T03:45:41.864Z,53.55
2023-05-19T03:46:41.840Z,56.12
2023-05-19T03:47:41.964Z,55.28
2023-05-19T03:48:41.962Z,52.98
2023-05-19T03:49:42.023Z,56.92
2023-05-19T03:50:42.088Z,56.32
2023-05-19T03:51:42.086Z,53.22
2023-05-19T03:52:42.161Z,53.47
2023-05-19T03:53:42.148Z,57.60
2023-05-19T03:54:42.262Z,54.78
2023-05-19T03:55:42.307Z,56.71
2023-05-19T03:56:42.317Z,54.02
2023-05-19T03:57:42.382Z,57.20
2023-05-19T03:58:42.430Z,53.74
2023-05-19T03:59:42.428Z,55.97
2023-05-19T04:00:42.483Z,56.95
2023-05-19T04:01:42.534Z,58.77
2023-05-19T04:02:42.681Z,56.03
2023-05-19T04:03:42.638Z,54.11
2023-05-19T04:04:42.702Z,59.24
2023-05-19T04:05:42.722Z,56.67
2023-05-19T04:06:42.762Z,54.26
2023-05-19T04:07:42.776Z,56.52
2023-05-19T04:08:42.804Z,59.42
2023-05-19T04:09:42.896Z,59.80
2023-05-19T04:10:42.948Z,58.59
2023-05-19T04:11:42.988Z,60.44
2023-05-19T04:12:42.977Z,55.11
2023-05-19T04:13:44.491Z,61.29
2023-05-19T04:14:43.086Z,58.31
2023-05-19T04:15:43.170Z,57.91
2023-05-19T04:16:43.177Z,58.12
2023-05-19T04:17:43.260Z,58.50
2023-05-19T04:18:43.282Z,61.42
2023-05-19T04:19:43.330Z,61.76
2023-05-19T04:20:43.389Z,57.89
2023-05-19T04:21:43.698Z,56.21
2023-05-19T04:22:43.465Z,62.30
2023-05-19T04:23:43.520Z,58.55
2023-05-19T04:24:43.548Z,56.21
2023-05-19T04:25:43.584Z,58.14
2023-05-19T04:26:43.625Z,62.69
2023-05-19T04:27:43.663Z,60.01
2023-05-19T04:28:43.696Z,62.05
2023-05-19T04:29:43.748Z,62.22
2023-05-19T04:30:43.827Z,58.86
2023-05-19T04:31:43.898Z,62.88
2023-05-19T04:32:43.914Z,58.95
2023-05-19T04:33:43.931Z,61.13
2023-05-19T04:34:43.976Z,60.44
2023-05-19T04:35:44.064Z,61.84
2023-05-19T04:36:44.056Z,63.32
2023-05-19T04:37:44.076Z,56.49
2023-05-19T04:38:44.136Z,63.59
2023-05-19T04:39:44.170Z,63.15
2023-05-19T04:40:44.257Z,62.00
2023-05-19T04:41:44.300Z,62.25
2023-05-19T04:42:44.352Z,59.53
2023-05-19T04:43:44.387Z,62.81
2023-05-19T04:44:44.406Z,63.76
2023-05-19T04:45:44.473Z,58.98
2023-05-19T04:46:44.529Z,61.31
2023-05-19T04:47:44.569Z,62.56
2023-05-19T04:48:44.585Z,61.92
2023-05-19T04:49:44.612Z,59.41
2023-05-19T04:50:44.701Z,60.79
2023-05-19T04:51:44.738Z,61.09
2023-05-19T04:52:44.779Z,61.37
2023-05-19T04:53:44.819Z,61.39
2023-05-19T04:54:44.819Z,59.05
2023-05-19T04:55:44.918Z,59.06
2023-05-19T04:56:44.920Z,61.10
2023-05-19T04:57:45.076Z,56.75
2023-05-19T04:58:45.005Z,58.89
2023-05-19T04:59:45.046Z,58.77
2023-05-19T05:02:04.012Z,25.00
2023-05-19T05:03:03.983Z,25.00
2023-05-19T05:04:03.981Z,25.00
2023-05-19T05:05:03.914Z,25.00
2023-05-19T05:06:03.924Z,25.00
2023-05-19T05:07:03.885Z,24.49
2023-05-19T05:08:03.949Z,28.47
2023-05-19T05:09:03.893Z,27.06
2023-05-19T05:10:03.868Z,27.18
2023-05-19T05:11:03.914Z,26.05
2023-05-19T05:12:03.864Z,30.40
2023-05-19T05:13:03.861Z,25.00
2023-05-19T05:14:03.879Z,31.13
2023-05-19T05:15:03.891Z,30.21
2023-05-19T05:16:04.009Z,29.26
2023-05-19T05:17:03.936Z,27.07
2023-05-19T05:18:03.995Z,26.66
2023-05-19T05:19:04.092Z,30.54
2023-05-19T05:20:04.136Z,28.90
2023-05-19T05:21:04.153Z,26.97
2023-05-19T05:22:04.183Z,26.85
2023-05-19T05:23:04.237Z,27.71
2023-05-19T05:24:04.300Z,27.95
2023-05-19T05:25:04.302Z,26.30
2023-05-19T05:26:04.352Z,31.42
2023-05-19T05:27:04.398Z,26.64
2023-05-19T05:28:04.470Z,30.48
2023-05-19T05:29:04.567Z,28.11
2023-05-19T05:30:04.546Z,30.81
2023-05-19T05:31:04.626Z,29.23
2023-05-19T05:32:04.684Z,33.24
2023-05-19T05:33:04.764Z,30.16
2023-05-19T05:34:04.705Z,29.76
2023-05-19T05:35:04.772Z,26.80
2023-05-19T05:36:04.831Z,26.80
2023-05-19T05:37:04.830Z,28.05
2023-05-19T05:38:04.895Z,30.91
2023-05-19T05:39:04.954Z,25.00
2023-05-19T05:40:05.044Z,32.34
2023-05-19T05:41:05.074Z,28.19
2023-05-19T05:42:05.198Z,28.23
2023-05-19T05:43:05.146Z,30.49
2023-05-19T05:44:05.213Z,28.22
2023-05-19T05:45:05.337Z,30.33
2023-05-19T05:47:24.102Z,25.00
2023-05-19T05:48:24.116Z,25.00
2023-05-19T05:49:24.102Z,25.00
2023-05-19T05:50:24.102Z,25.00
2023-05-19T05:51:24.091Z,25.00
2023-05-19T05:52:24.086Z,26.96
2023-05-19T05:53:24.053Z,26.04
2023-05-19T05:54:24.050Z,28.83
2023-05-19T05:55:24.082Z,26.21
2023-05-19T05:56:24.074Z,26.37
2023-05-19T05:57:24.087Z,28.13
2023-05-19T05:58:24.042Z,26.22
2023-05-19T05:59:24.016Z,29.84
2023-05-19T06:00:24.015Z,28.96
2023-05-19T06:01:24.131Z,30.83
2023-05-19T06:02:24.092Z,30.89
2023-05-19T06:03:24.076Z,31.74
2023-05-19T06:04:24.027Z,26.82
2023-05-19T06:05:24.021Z,29.32
2023-05-19T06:06:24.006Z,31.86
2023-05-19T06:07:23.966Z,28.08
2023-05-19T06:08:24.015Z,26.26
2023-05-19T06:09:23.960Z,29.02
2023-05-19T06:10:23.943Z,30.10
2023-05-19T06:11:24.377Z,29.81
2023-05-19T06:12:23.947Z,30.48
2023-05-19T06:13:24.050Z,29.85
2023-05-19T06:14:23.962Z,31.39
2023-05-19T06:15:23.898Z,33.17
2023-05-19T06:16:23.949Z,31.72
2023-05-19T06:17:23.914Z,30.98
2023-05-19T06:18:23.919Z,31.12
2023-05-19T06:19:24.051Z,30.61
2023-05-19T06:20:24.009Z,31.37
2023-05-19T06:21:24.439Z,28.74
2023-05-19T06:22:24.041Z,28.52
2023-05-19T06:23:24.091Z,32.18
2023-05-19T06:24:24.172Z,33.03
2023-05-19T06:25:24.222Z,29.55
2023-05-19T06:26:24.281Z,32.01
2023-05-19T06:27:24.329Z,30.48
2023-05-19T06:28:24.403Z,28.72
2023-05-19T06:29:24.423Z,30.96
2023-05-19T06:30:24.455Z,30.46
2023-05-19T06:31:24.545Z,29.47
2023-05-19T06:32:24.556Z,32.05
2023-05-19T06:33:26.160Z,32.37
2023-05-19T06:34:24.650Z,35.43
2023-05-19T06:35:24.598Z,34.57
2023-05-19T06:36:24.587Z,30.62
2023-05-19T06:37:24.559Z,34.37
2023-05-19T06:38:24.563Z,29.88
2023-05-19T06:39:24.592Z,34.68
2023-05-19T06:40:24.590Z,32.46
2023-05-19T06:41:24.593Z,29.61
2023-05-19T06:42:24.547Z,35.41
2023-05-19T06:43:24.578Z,33.62
2023-05-19T06:44:24.500Z,34.04
2023-05-19T06:45:24.550Z,35.64
2023-05-19T06:46:24.574Z,35.76
2023-05-19T06:47:24.529Z,35.67
2023-05-19T06:48:24.487Z,33.64
2023-05-19T06:49:24.495Z,35.26
2023-05-19T06:50:24.546Z,36.38
2023-05-19T06:51:24.499Z,33.26
2023-05-19T06:52:24.489Z,34.55
2023-05-19T06:53:24.471Z,34.53
2023-05-19T06:54:24.457Z,32.21
2023-05-19T06:55:24.469Z,35.71
2023-05-19T06:56:24.472Z,38.90
2023-05-19T06:57:24.418Z,39.55
2023-05-19T06:58:24.428Z,43.75
2023-05-19T06:59:24.393Z,42.37
2023-05-19T07:00:24.411Z,38.62
2023-05-19T07:01:24.448Z,40.02
2023-05-19T07:02:24.394Z,39.89
2023-05-19T07:03:24.508Z,38.03
2023-05-19T07:04:24.357Z,33.46
2023-05-19T07:05:24.361Z,39.47
2023-05-19T07:06:24.404Z,38.72
2023-05-19T07:07:24.340Z,41.11
2023-05-19T07:08:24.336Z,41.29
2023-05-19T07:09:24.405Z,41.14
2023-05-19T07:10:24.460Z,41.60
2023-05-19T07:11:24.527Z,41.85
2023-05-19T07:12:24.560Z,37.87
2023-05-19T07:13:27.206Z,40.96
2023-05-19T07:14:24.616Z,45.06
2023-05-19T07:15:24.560Z,46.32
2023-05-19T07:16:24.590Z,41.48
2023-05-19T07:17:24.628Z,39.42
2023-05-19T07:18:24.523Z,39.67
2023-05-19T07:19:24.586Z,40.94
2023-05-19T07:20:24.521Z,39.20
2023-05-19T07:21:24.552Z,39.28
2023-05-19T07:22:24.534Z,39.42
2023-05-19T07:23:24.498Z,40.07
2023-05-19T07:24:24.498Z,40.62
2023-05-19T07:25:24.471Z,37.79
2023-05-19T07:26:24.492Z,39.75
2023-05-19T07:27:24.479Z,37.49
2023-05-19T07:28:24.516Z,36.40
2023-05-19T07:29:24.495Z,36.42
2023-05-19T07:30:24.459Z,34.41
2023-05-19T07:31:24.469Z,35.84
2023-05-19T07:32:24.471Z,30.87
2023-05-19T07:33:24.440Z,35.76
2023-05-19T07:34:24.422Z,32.16
2023-05-19T07:35:24.437Z,31.44
2023-05-19T07:36:24.412Z,33.28
2023-05-19T07:37:24.440Z,31.49
2023-05-19T07:38:24.388Z,30.28
2023-05-19T07:39:24.534Z,29.14
2023-05-19T07:40:24.364Z,30.97
2023-05-19T07:41:24.351Z,30.80
2023-05-19T07:42:24.401Z,31.69
2023-05-19T07:43:24.383Z,33.68
2023-05-19T07:44:24.331Z,33.01
2023-05-19T07:45:24.368Z,34.49
2023-05-19T07:46:24.411Z,32.04
2023-05-19T07:47:24.333Z,33.98
2023-05-19T07:48:24.332Z,32.32
2023-05-19T07:49:24.330Z,30.04
2023-05-19T07:50:24.422Z,29.52
2023-05-19T07:51:24.297Z,31.30
2023-05-19T07:52:24.346Z,29.64
2023-05-19T07:53:24.281Z,33.88
2023-05-19T07:54:24.289Z,31.21
2023-05-19T07:55:24.258Z,26.78
2023-05-19T07:56:24.265Z,29.89
2023-05-19T07:57:24.232Z,30.25
2023-05-19T07:58:24.333Z,28.88
2023-05-19T07:59:24.314Z,25.74
2023-05-19T08:00:24.468Z,29.62
2023-05-19T08:01:24.457Z,26.80
2023-05-19T08:02:24.603Z,32.38
2023-05-19T08:03:24.657Z,36.07
2023-05-19T08:04:24.612Z,30.54
2023-05-19T08:05:24.688Z,34.75
2023-05-19T08:06:24.656Z,32.11
2023-05-19T08:07:24.739Z,29.19
2023-05-19T08:08:24.793Z,30.82
2023-05-19T08:09:24.872Z,29.68
2023-05-19T08:10:24.929Z,28.19
2023-05-19T08:11:24.902Z,29.03
2023-05-19T08:12:25.002Z,31.28
2023-05-19T08:13:24.994Z,30.28
2023-05-19T08:14:25.058Z,28.92
2023-05-19T08:15:25.067Z,29.56
2023-05-19T08:16:25.243Z,31.28
2023-05-19T08:17:25.291Z,26.85
2023-05-19T08:18:25.240Z,31.09
2023-05-19T08:19:25.325Z,27.79
2023-05-19T08:20:25.328Z,32.23
2023-05-19T08:21:25.367Z,29.50
2023-05-19T08:22:25.470Z,33.16
2023-05-19T08:23:25.497Z,32.67
2023-05-19T08:24:25.536Z,31.84
2023-05-19T08:25:25.606Z,34.95
2023-05-19T08:26:25.636Z,30.49
2023-05-19T08:27:25.709Z,33.22
2023-05-19T08:28:25.713Z,32.31
2023-05-19T08:29:25.760Z,32.40
2023-05-19T08:30:25.847Z,28.18
2023-05-19T08:31:25.878Z,28.61
2023-05-19T08:32:25.965Z,29.48
2023-05-19T08:33:25.956Z,27.75
2023-05-19T08:34:26.019Z,29.98
2023-05-19T08:35:26.044Z,28.60
2023-05-19T08:36:26.078Z,30.15
2023-05-19T08:37:26.195Z,28.96
2023-05-19T08:38:26.204Z,30.09
2023-05-19T08:39:26.254Z,28.67
2023-05-19T08:40:26.311Z,28.39
2023-05-19T08:41:26.414Z,31.32
2023-05-19T08:42:26.389Z,30.12
2023-05-19T08:43:26.392Z,32.03
2023-05-19T08:44:26.485Z,29.48
2023-05-19T08:45:26.507Z,29.64
2023-05-19T08:46:26.684Z,30.52
2023-05-19T08:47:26.732Z,34.42
2023-05-19T08:48:26.690Z,33.64
2023-05-19T08:49:26.726Z,32.51
2023-05-19T08:50:26.779Z,32.15
2023-05-19T08:51:26.821Z,31.32
2023-05-19T08:52:26.831Z,29.28
2023-05-19T08:54:26.881Z,28.83
2023-05-19T08:55:26.925Z,29.27
2023-05-19T08:56:26.900Z,29.70
2023-05-19T08:57:26.864Z,30.99
2023-05-19T08:58:28.675Z,32.39
2023-05-19T08:59:26.811Z,31.64
2023-05-19T09:00:26.870Z,40.49
2023-05-19T09:01:26.869Z,37.89
2023-05-19T09:02:26.895Z,34.49
2023-05-19T09:03:26.964Z,32.09
2023-05-19T09:04:29.056Z,30.24
2023-05-19T09:05:26.852Z,32.98
2023-05-19T09:06:26.791Z,33.48
2023-05-19T09:07:26.833Z,31.82
2023-05-19T09:08:26.810Z,34.93
2023-05-19T09:09:26.742Z,38.92
2023-05-19T09:10:28.430Z,41.59
2023-05-19T09:11:26.758Z,41.91
2023-05-19T09:12:26.755Z,42.33
2023-05-19T09:13:26.887Z,43.69
2023-05-19T09:14:26.827Z,45.20
2023-05-19T09:15:26.872Z,46.78
2023-05-19T09:16:28.603Z,52.44
2023-05-19T09:17:27.013Z,55.49
2023-05-19T09:18:26.961Z,50.99
2023-05-19T09:19:27.006Z,47.29
2023-05-19T09:20:26.914Z,46.65
2023-05-19T09:21:26.899Z,45.93
2023-05-19T09:22:26.927Z,52.60
2023-05-19T09:23:26.923Z,51.10
2023-05-19T09:24:26.883Z,47.92
2023-05-19T09:25:26.878Z,49.02
2023-05-19T09:26:26.869Z,47.43
2023-05-19T09:27:26.883Z,44.14
2023-05-19T09:28:26.851Z,43.35
2023-05-19T09:29:26.842Z,35.59
2023-05-19T09:30:26.878Z,31.99
2023-05-19T09:31:26.875Z,33.07
2023-05-19T09:32:27.239Z,26.30
2023-05-19T09:33:26.834Z,25.00
2023-05-19T09:34:26.833Z,29.05
2023-05-19T09:35:26.807Z,27.39
2023-05-19T09:36:26.787Z,27.77
2023-05-19T09:37:26.828Z,28.11
2023-05-19T09:38:26.768Z,28.35
2023-05-19T09:39:26.761Z,26.77
2023-05-19T09:40:26.775Z,28.44
2023-05-19T09:41:26.744Z,30.79
2023-05-19T09:42:26.718Z,29.11
2023-05-19T09:43:26.744Z,26.95
2023-05-19T09:44:26.741Z,28.82
2023-05-19T09:45:26.702Z,26.17
2023-05-19T09:46:26.756Z,25.49
2023-05-19T09:47:26.739Z,30.57
2023-05-19T09:48:26.791Z,29.23
2023-05-19T09:49:26.692Z,26.47
2023-05-19T09:50:26.697Z,30.18
2023-05-19T09:51:26.722Z,28.88
2023-05-19T09:52:26.789Z,29.55
2023-05-19T09:53:26.652Z,26.55
2023-05-19T09:54:26.633Z,30.15
2023-05-19T09:55:26.719Z,25.00
2023-05-19T09:56:26.659Z,27.65
2023-05-19T09:57:26.640Z,28.95
2023-05-19T09:58:26.635Z,30.05
2023-05-19T09:59:27.043Z,25.42
2023-05-19T10:00:26.611Z,28.16
2023-05-19T10:01:26.785Z,29.94
2023-05-19T10:02:26.752Z,27.66
2023-05-19T10:03:26.785Z,26.74
2023-05-19T10:04:26.831Z,28.77
2023-05-19T10:05:26.897Z,30.65
2023-05-19T10:06:26.899Z,29.50
2023-05-19T10:07:26.968Z,27.70
2023-05-19T10:08:26.957Z,31.82
2023-05-19T10:09:27.029Z,25.90
2023-05-19T10:10:27.078Z,28.34
2023-05-19T10:11:27.093Z,26.03
2023-05-19T10:12:27.169Z,32.07
2023-05-19T10:13:27.160Z,33.90
2023-05-19T10:14:27.238Z,30.30
2023-05-19T10:15:27.264Z,33.39
2023-05-19T10:16:27.293Z,30.46
2023-05-19T10:17:27.361Z,33.61
2023-05-19T10:18:27.389Z,34.78
2023-05-19T10:19:27.607Z,31.65
2023-05-19T10:20:27.423Z,32.59
2023-05-19T10:21:27.527Z,34.09
2023-05-19T10:22:27.538Z,32.38
2023-05-19T10:23:27.545Z,33.89
2023-05-19T10:24:27.611Z,34.14
2023-05-19T10:25:27.634Z,30.61
2023-05-19T10:26:27.711Z,33.73
2023-05-19T10:27:27.721Z,33.46
2023-05-19T10:28:27.790Z,33.60
2023-05-19T10:29:27.797Z,35.77
2023-05-19T10:30:27.849Z,32.98
2023-05-19T10:31:27.922Z,32.58
2023-05-19T10:32:28.048Z,33.18
2023-05-19T10:33:27.913Z,32.57
2023-05-19T10:34:27.967Z,32.21
2023-05-19T10:35:27.954Z,32.22
2023-05-19T10:36:28.037Z,31.76
2023-05-19T10:37:28.028Z,28.50
2023-05-19T10:38:28.055Z,28.80
2023-05-19T10:39:28.093Z,31.61
2023-05-19T10:40:28.167Z,29.55
2023-05-19T10:41:28.177Z,31.35
2023-05-19T10:42:28.181Z,31.97
2023-05-19T10:43:28.212Z,27.40
2023-05-19T10:44:28.243Z,28.17
2023-05-19T10:45:28.237Z,26.92
2023-05-19T10:46:28.346Z,33.17
2023-05-19T10:47:28.461Z,29.71
2023-05-19T10:48:28.325Z,27.75
2023-05-19T10:49:28.412Z,30.91
2023-05-19T10:50:28.378Z,29.74
2023-05-19T10:51:28.398Z,33.02
2023-05-19T10:52:28.462Z,35.09
2023-05-19T10:53:28.464Z,31.72
2023-05-19T10:54:28.500Z,33.85
2023-05-19T10:55:28.534Z,35.67
2023-05-19T10:56:28.575Z,33.41
2023-05-19T10:57:28.637Z,35.28
2023-05-19T10:58:28.639Z,33.40
2023-05-19T10:59:29.625Z,30.59
2023-05-19T11:00:28.661Z,37.58
2023-05-19T11:01:28.743Z,36.31
2023-05-19T11:02:28.781Z,40.20
2023-05-19T11:03:29.005Z,34.72
2023-05-19T11:04:28.795Z,40.76
2023-05-19T11:05:28.764Z,34.07
2023-05-19T11:06:28.788Z,35.51
2023-05-19T11:07:28.868Z,31.30
2023-05-19T11:08:28.861Z,33.20
2023-05-19T11:09:39.758Z,31.53
2023-05-19T11:10:29.853Z,31.80
2023-05-19T11:11:28.849Z,32.12
2023-05-19T11:12:28.850Z,32.01
2023-05-19T11:13:28.851Z,31.73
2023-05-19T11:14:28.836Z,33.23
2023-05-19T11:15:28.871Z,34.82
2023-05-19T11:16:28.846Z,38.33
2023-05-19T11:17:28.863Z,34.84
2023-05-19T11:18:28.841Z,34.96
2023-05-19T11:19:28.903Z,36.06
2023-05-19T11:20:28.893Z,36.83
2023-05-19T11:21:28.848Z,37.82
2023-05-19T11:22:28.810Z,32.15
2023-05-19T11:23:28.814Z,31.87
2023-05-19T11:24:28.744Z,33.43
2023-05-19T11:25:28.768Z,29.07
2023-05-19T11:26:28.727Z,32.66
2023-05-19T11:27:28.752Z,28.55
2023-05-19T11:28:28.736Z,31.20
2023-05-19T11:29:28.772Z,31.10
2023-05-19T11:30:28.776Z,28.33
2023-05-19T11:31:28.846Z,29.99
2023-05-19T11:32:28.994Z,33.62
2023-05-19T11:33:28.846Z,31.96
2023-05-19T11:34:28.878Z,30.31
2023-05-19T11:35:28.879Z,30.14
2023-05-19T11:36:28.938Z,32.50
2023-05-19T11:37:28.917Z,36.15
2023-05-19T11:38:28.980Z,34.17
2023-05-19T11:39:28.990Z,33.77
2023-05-19T11:40:29.090Z,32.43
2023-05-19T11:41:29.039Z,30.83
2023-05-19T11:42:29.060Z,30.25
2023-05-19T11:43:29.061Z,29.92
2023-05-19T11:44:29.135Z,34.08
2023-05-19T11:45:29.151Z,33.12
2023-05-19T11:46:29.183Z,27.76
2023-05-19T11:47:29.901Z,32.35
2023-05-19T11:48:29.176Z,32.21
2023-05-19T11:49:29.194Z,28.37
2023-05-19T11:50:29.230Z,30.06
2023-05-19T11:51:29.278Z,32.87
2023-05-19T11:52:29.298Z,26.96
2023-05-19T11:53:29.316Z,26.25
2023-05-19T11:54:29.343Z,26.83
2023-05-19T11:55:29.348Z,29.38
2023-05-19T11:56:29.385Z,27.41
2023-05-19T11:57:29.477Z,27.90
2023-05-19T11:58:29.430Z,32.56
2023-05-19T11:59:29.432Z,30.14
2023-05-19T12:00:29.495Z,32.04
2023-05-19T12:01:29.486Z,34.53
2023-05-19T12:02:29.609Z,35.03
2023-05-19T12:03:29.754Z,32.36
2023-05-19T12:04:29.539Z,29.45
2023-05-19T12:05:29.642Z,35.76
2023-05-19T12:06:29.677Z,34.30
2023-05-19T12:07:29.660Z,35.05
2023-05-19T12:08:29.635Z,33.53
2023-05-19T12:09:29.705Z,30.22
2023-05-19T12:10:29.736Z,32.66
2023-05-19T12:11:29.713Z,30.74
2023-05-19T12:12:29.765Z,27.23
2023-05-19T12:13:29.766Z,30.46
2023-05-19T12:14:29.773Z,29.72
2023-05-19T12:15:29.848Z,32.31
2023-05-19T12:16:31.161Z,34.25
2023-05-19T12:17:29.851Z,33.75
2023-05-19T12:18:29.835Z,34.82
2023-05-19T12:19:29.917Z,35.00
2023-05-19T12:20:29.845Z,38.70
2023-05-19T12:21:34.275Z,35.51
2023-05-19T12:22:29.808Z,35.75
2023-05-19T12:23:29.802Z,36.45
2023-05-19T12:24:29.777Z,37.49
2023-05-19T12:25:29.838Z,35.57
2023-05-19T12:26:29.787Z,35.79
2023-05-19T12:27:29.764Z,31.25
2023-05-19T12:28:29.800Z,33.98
2023-05-19T12:29:29.748Z,33.68
2023-05-19T12:30:29.788Z,33.55
2023-05-19T12:31:29.778Z,30.86
2023-05-19T12:32:29.809Z,32.47
2023-05-19T12:33:29.721Z,32.26
2023-05-19T12:34:29.705Z,35.72
2023-05-19T12:35:29.750Z,34.03
2023-05-19T12:36:29.732Z,35.11
2023-05-19T12:37:29.756Z,34.62
2023-05-19T12:38:29.725Z,33.07
2023-05-19T12:39:29.709Z,30.14
2023-05-19T12:40:29.692Z,31.26
2023-05-19T12:41:29.704Z,34.46
2023-05-19T12:42:29.739Z,30.83
2023-05-19T12:43:29.748Z,31.93
2023-05-19T12:44:29.749Z,32.11
2023-05-19T12:45:29.846Z,32.32
2023-05-19T12:46:29.984Z,35.24
2023-05-19T12:47:29.968Z,34.03
2023-05-19T12:48:29.881Z,35.68
2023-05-19T12:49:29.941Z,34.90
2023-05-19T12:50:30.026Z,33.80
2023-05-19T12:51:29.951Z,29.64
2023-05-19T12:52:30.002Z,31.25
2023-05-19T12:53:30.072Z,33.04
2023-05-19T12:54:30.125Z,33.20
2023-05-19T12:55:30.100Z,34.14
2023-05-19T12:56:30.156Z,31.58